Terminal Aerodrome Forecast
Issued by NWS Charleston, WV

Current Version | Previous Version | Graphics & Text | Print | Product List | Glossary On
Versions: 1 2 3 4 5 6 7 8 9 10 11 12 13 14 15 16 17 18 19 20 21 22 23 24 25 26 27 28
000
FTUS41 KRLX 220900 AAA
TAFHTS
TAF AMD
KHTS 220917Z 2209/2306 17003KT 4SM BR SCT001 BKN030
     FM221200 VRB03KT 4SM BR SCT025 BKN080
     FM221300 VRB03KT P6SM BKN025
     FM221700 23005KT 5SM SHRA BR VCTS BKN030CB
     FM230100 VRB03KT 6SM BR BKN030=

USA.gov is the U.S. government's official web portal to all federal, state and local government web resources and services.